Time;durP1;ratioP1;P1;durP2;ratioP2;P2;SDS_P1;SDS_P2;PMS_P1;PMS_P2;Temp;Humidity;BMP_temperature;BMP_pressure;BME280_temperature;BME280_humidity;BME280_pressure;Samples;Min_cycle;Max_cycle;Signal;HPM_P1;HPM_P2
2021/01/03 00:02:23;;;;;;;39.92;17.52;;;;;;;3.69;86.18;97592.97;5050833;28;20036;-79
2021/01/03 00:04:48;;;;;;;41.28;18.95;;;;;;;3.52;87.19;97583.88;5034052;28;20032;-80
2021/01/03 00:07:14;;;;;;;35.15;15.98;;;;;;;3.61;86.81;97594.16;5017215;28;20031;-79
2021/01/03 00:09:39;;;;;;;61.20;29.05;;;;;;;3.68;86.52;97585.97;4987720;28;20092;-79
2021/01/03 00:12:05;;;;;;;45.40;20.75;;;;;;;3.64;86.52;97588.75;5000111;28;20032;-79
2021/01/03 00:14:31;;;;;;;44.78;20.35;;;;;;;3.60;87.07;97598.56;5053904;28;20101;-79
2021/01/03 00:17:01;;;;;;;35.22;16.58;;;;;;;3.68;86.79;97593.91;4964236;28;20031;-80
2021/01/03 00:19:27;;;;;;;47.15;19.90;;;;;;;3.68;86.17;97580.69;5028987;28;20082;-80
2021/01/03 00:21:53;;;;;;;43.40;20.73;;;;;;;3.69;87.12;97592.97;5036827;28;20041;-80
2021/01/03 00:24:20;;;;;;;52.38;22.55;;;;;;;3.77;86.55;97601.53;4985121;28;20068;-80
2021/01/03 00:26:45;;;;;;;56.38;25.15;;;;;;;3.79;86.58;97586.47;4988019;28;20025;-80
2021/01/03 00:29:11;;;;;;;44.97;20.52;;;;;;;3.91;86.43;97594.91;5036140;28;20399;-79
2021/01/03 00:31:41;;;;;;;52.90;24.77;;;;;;;3.90;85.64;97595.81;5003064;28;20029;-80
2021/01/03 00:34:07;;;;;;;60.85;28.35;;;;;;;3.95;86.29;97607.09;5026231;28;20029;-80
2021/01/03 00:36:32;;;;;;;67.53;29.05;;;;;;;4.06;86.65;97619.03;4979829;28;20025;-80
2021/01/03 00:38:58;;;;;;;59.42;26.90;;;;;;;4.17;85.96;97606.28;5036574;28;20500;-79
2021/01/03 00:41:24;;;;;;;48.67;21.77;;;;;;;4.16;84.49;97593.09;5036749;28;20028;-79
2021/01/03 00:43:49;;;;;;;50.40;23.98;;;;;;;3.97;85.05;97598.16;4986192;28;20039;-80
2021/01/03 00:46:15;;;;;;;53.80;23.40;;;;;;;3.86;85.31;97591.53;5006107;28;20154;-79
2021/01/03 00:48:40;;;;;;;43.85;22.67;;;;;;;3.90;85.28;97606.41;4955853;28;20034;-79
2021/01/03 00:51:06;;;;;;;39.08;20.48;;;;;;;3.73;85.66;97589.31;4956397;28;20117;-79
2021/01/03 00:53:32;;;;;;;50.65;22.20;;;;;;;3.55;86.57;97584.66;4996326;28;20072;-80
2021/01/03 00:55:57;;;;;;;44.33;21.88;;;;;;;3.62;86.53;97590.59;5054872;28;20507;-80
2021/01/03 00:58:23;;;;;;;41.90;20.05;;;;;;;3.60;86.43;97585.34;5038301;28;20166;-79
2021/01/03 01:00:48;;;;;;;37.97;19.80;;;;;;;3.66;86.65;97587.78;5036814;28;20021;-80
2021/01/03 01:03:14;;;;;;;48.00;23.55;;;;;;;3.73;86.59;97591.09;5018709;28;20037;-80
2021/01/03 01:05:40;;;;;;;45.95;21.60;;;;;;;3.81;85.62;97586.41;5027836;28;20022;-79
2021/01/03 01:08:05;;;;;;;54.78;24.48;;;;;;;3.92;85.48;97583.38;4961792;28;20038;-80
2021/01/03 01:10:31;;;;;;;51.53;25.85;;;;;;;3.95;85.26;97576.22;4997906;28;20073;-80
2021/01/03 01:13:00;;;;;;;43.28;22.80;;;;;;;3.98;85.31;97583.16;4955528;28;20027;-80
2021/01/03 01:15:32;;;;;;;47.67;23.92;;;;;;;4.06;85.69;97597.00;4956105;28;20039;-80
2021/01/03 01:18:02;;;;;;;54.20;22.23;;;;;;;4.19;84.93;97590.34;4972798;28;20023;-80
2021/01/03 01:20:29;;;;;;;38.15;21.02;;;;;;;4.27;83.95;97583.00;5036193;28;20033;-80
2021/01/03 01:22:54;;;;;;;52.55;22.35;;;;;;;4.23;84.27;97569.00;5003538;28;20030;-80
2021/01/03 01:25:23;;;;;;;47.58;20.95;;;;;;;4.23;84.30;97553.13;4968552;28;20025;-80
2021/01/03 01:27:49;;;;;;;47.60;22.45;;;;;;;4.34;84.50;97571.25;4974824;28;20019;-80
2021/01/03 01:30:15;;;;;;;41.83;21.73;;;;;;;4.35;84.36;97563.25;4954771;28;20575;-80
2021/01/03 01:32:42;;;;;;;50.30;23.33;;;;;;;4.49;84.01;97570.66;4971270;28;20409;-80
2021/01/03 01:35:12;;;;;;;48.38;23.02;;;;;;;4.57;83.88;97573.91;4960937;28;20027;-80
2021/01/03 01:37:38;;;;;;;41.80;21.77;;;;;;;4.53;84.12;97567.00;5036323;28;20064;-80
2021/01/03 01:40:06;;;;;;;48.22;21.70;;;;;;;4.63;83.56;97572.81;5037485;28;20055;-80
2021/01/03 01:42:31;;;;;;;44.97;21.58;;;;;;;4.51;84.54;97566.19;5001801;28;20073;-79
2021/01/03 01:44:57;;;;;;;46.00;21.85;;;;;;;4.65;83.68;97574.47;5038380;28;20025;-80
2021/01/03 01:47:59;;;;;;;44.17;21.75;;;;;;;4.66;83.88;97562.97;5036319;28;20032;-79
2021/01/03 01:50:32;;;;;;;48.58;25.50;;;;;;;4.45;84.42;97562.91;5019235;28;20119;-79
2021/01/03 01:53:08;;;;;;;58.50;28.02;;;;;;;4.53;84.18;97556.41;5036688;28;20409;-78
2021/01/03 01:55:51;;;;;;;49.38;22.73;;;;;;;4.44;84.33;97542.66;4943100;28;20035;-79
2021/01/03 01:58:30;;;;;;;51.95;25.08;;;;;;;4.46;84.30;97559.34;4971500;28;20026;-80
2021/01/03 02:00:57;;;;;;;50.10;26.13;;;;;;;4.34;84.70;97543.00;4955169;28;20031;-78
2021/01/03 02:03:30;;;;;;;68.70;31.98;;;;;;;4.45;84.36;97550.53;5038307;28;20062;-79
2021/01/03 02:06:44;;;;;;;120.78;53.13;;;;;;;4.36;83.66;97540.31;5034245;28;20463;-79
2021/01/03 02:09:15;;;;;;;75.50;38.42;;;;;;;4.29;84.68;97541.44;5028067;28;20411;-80
2021/01/03 02:11:41;;;;;;;66.60;32.67;;;;;;;4.32;85.30;97546.63;5034913;28;20492;-80
2021/01/03 02:14:08;;;;;;;79.82;40.20;;;;;;;4.34;84.89;97544.78;5051906;28;20036;-80
2021/01/03 02:16:36;;;;;;;84.30;40.88;;;;;;;4.48;84.30;97546.91;5035340;28;20530;-80
2021/01/03 02:19:02;;;;;;;191.73;76.53;;;;;;;4.52;84.05;97544.09;4970535;28;20492;-81
2021/01/03 02:22:03;;;;;;;93.22;41.22;;;;;;;4.59;84.19;97532.34;5034705;28;20460;-79
2021/01/03 02:25:04;;;;;;;80.40;37.47;;;;;;;4.68;84.28;97536.41;4970990;28;20042;-79
2021/01/03 02:27:54;;;;;;;50.95;26.20;;;;;;;4.63;83.85;97536.59;4988244;28;20020;-80
2021/01/03 02:30:21;;;;;;;51.60;25.17;;;;;;;4.53;85.73;97519.31;4978932;28;20138;-80
2021/01/03 02:32:49;;;;;;;45.05;24.98;;;;;;;4.44;85.75;97508.22;5017800;28;20546;-79
2021/01/03 02:35:19;;;;;;;56.35;27.85;;;;;;;4.51;86.71;97526.47;5030297;28;20477;-80
2021/01/03 02:37:47;;;;;;;71.43;34.20;;;;;;;4.43;87.69;97533.84;4974233;28;20102;-80
2021/01/03 02:40:22;;;;;;;86.10;40.28;;;;;;;4.40;89.01;97528.66;5050986;28;20106;-79
2021/01/03 02:42:48;;;;;;;86.63;41.85;;;;;;;4.41;90.09;97518.94;5052035;28;20472;-79
2021/01/03 02:45:23;;;;;;;79.00;36.28;;;;;;;4.46;92.45;97507.22;4980592;28;20084;-79
2021/01/03 02:47:49;;;;;;;77.03;35.90;;;;;;;4.43;92.70;97510.00;4953694;28;20562;-79
2021/01/03 02:50:23;;;;;;;81.75;38.75;;;;;;;4.46;93.26;97520.47;4989718;28;20113;-79
2021/01/03 02:52:49;;;;;;;82.53;40.83;;;;;;;4.35;94.42;97493.56;5034227;28;20447;-79
2021/01/03 02:55:16;;;;;;;75.60;37.70;;;;;;;4.44;94.30;97502.91;5013981;28;20477;-79
2021/01/03 02:57:43;;;;;;;79.18;37.28;;;;;;;4.22;93.75;97502.88;5004198;28;20031;-79
2021/01/03 03:00:24;;;;;;;70.50;36.40;;;;;;;4.11;95.29;97497.13;5033819;28;20032;-79
2021/01/03 03:02:50;;;;;;;77.47;37.90;;;;;;;4.17;95.43;97512.78;5035008;28;20040;-81
2021/01/03 03:05:17;;;;;;;76.78;38.28;;;;;;;4.20;95.19;97510.88;5000658;28;20030;-79
2021/01/03 03:07:43;;;;;;;74.57;38.70;;;;;;;4.21;95.30;97509.97;5050926;28;20085;-79
2021/01/03 03:10:09;;;;;;;71.63;36.85;;;;;;;4.28;96.21;97510.59;5002872;28;20034;-79
2021/01/03 03:12:35;;;;;;;82.32;39.42;;;;;;;4.29;95.25;97502.59;4986340;28;20026;-79
2021/01/03 03:15:05;;;;;;;80.53;40.28;;;;;;;4.32;95.45;97506.91;4979507;28;20417;-79
2021/01/03 03:17:31;;;;;;;85.60;40.50;;;;;;;4.28;95.64;97497.34;4966445;28;20486;-80
2021/01/03 03:19:57;;;;;;;87.20;40.15;;;;;;;4.23;97.04;97504.63;5033568;28;20032;-80
2021/01/03 03:22:22;;;;;;;78.30;39.88;;;;;;;4.24;97.31;97495.75;5033410;28;20123;-80
2021/01/03 03:24:48;;;;;;;86.63;40.55;;;;;;;4.30;97.70;97495.53;5033452;28;20539;-81
2021/01/03 03:27:13;;;;;;;81.03;37.83;;;;;;;4.40;96.45;97506.63;5033489;28;20488;-79
2021/01/03 03:29:39;;;;;;;73.05;36.88;;;;;;;4.37;96.32;97494.34;5002972;28;20081;-80
2021/01/03 03:32:05;;;;;;;82.93;41.42;;;;;;;4.34;96.17;97497.97;4953486;28;20030;-80
2021/01/03 03:34:30;;;;;;;92.10;41.28;;;;;;;4.40;96.02;97502.16;5020268;28;20047;-80
2021/01/03 03:36:56;;;;;;;84.97;40.38;;;;;;;4.23;96.72;97508.13;4952672;28;20418;-80
2021/01/03 03:39:23;;;;;;;87.30;41.30;;;;;;;4.40;95.57;97506.63;4952351;28;20525;-80
2021/01/03 03:41:49;;;;;;;87.63;41.42;;;;;;;4.29;95.47;97505.25;4970219;28;20025;-80
2021/01/03 03:44:15;;;;;;;91.43;44.25;;;;;;;4.32;96.51;97514.84;5036276;28;20412;-81
2021/01/03 03:46:40;;;;;;;92.60;45.22;;;;;;;4.30;96.99;97516.72;5054346;28;20520;-80
2021/01/03 03:49:06;;;;;;;69.90;32.60;;;;;;;4.30;96.08;97514.06;5054509;28;20074;-80
2021/01/03 03:51:32;;;;;;;57.53;28.23;;;;;;;4.29;94.07;97499.09;5046449;28;20035;-80
2021/01/03 03:53:57;;;;;;;59.45;28.58;;;;;;;4.38;93.90;97504.03;4971943;28;20043;-80
2021/01/03 03:56:23;;;;;;;54.05;26.50;;;;;;;4.40;94.09;97507.47;4958587;28;20410;-80
2021/01/03 03:58:48;;;;;;;74.97;37.13;;;;;;;4.40;95.65;97504.81;5038511;28;20029;-80
2021/01/03 04:01:14;;;;;;;81.35;38.20;;;;;;;4.22;96.04;97514.34;5007011;28;20083;-80
2021/01/03 04:03:40;;;;;;;75.22;38.35;;;;;;;4.08;97.16;97518.41;4956258;28;20030;-80
2021/01/03 04:06:06;;;;;;;55.30;26.77;;;;;;;4.00;96.48;97523.13;4981994;28;20021;-80
2021/01/03 04:08:32;;;;;;;51.95;27.35;;;;;;;3.83;97.44;97519.31;4970838;28;20065;-80
2021/01/03 04:10:58;;;;;;;56.72;27.05;;;;;;;3.87;97.39;97504.19;5018240;28;20529;-80
2021/01/03 04:13:24;;;;;;;50.53;27.00;;;;;;;4.03;97.49;97517.72;4990248;28;20089;-79
2021/01/03 04:15:50;;;;;;;50.55;25.80;;;;;;;4.14;97.12;97520.84;4988201;28;20114;-80
2021/01/03 04:18:16;;;;;;;44.80;24.35;;;;;;;4.04;96.65;97508.84;4955891;28;20035;-80
2021/01/03 04:20:41;;;;;;;43.20;22.35;;;;;;;3.99;96.47;97509.03;4989267;28;20029;-80
2021/01/03 04:23:08;;;;;;;40.78;21.98;;;;;;;3.94;96.06;97510.13;5014580;28;20087;-80
2021/01/03 04:25:35;;;;;;;44.35;23.63;;;;;;;3.90;97.18;97516.44;5037866;28;20032;-80
2021/01/03 04:28:00;;;;;;;38.83;21.42;;;;;;;4.00;97.01;97509.91;5037043;28;20485;-80
2021/01/03 04:30:28;;;;;;;40.50;21.27;;;;;;;4.09;96.07;97505.13;4968310;28;20050;-79
2021/01/03 04:32:54;;;;;;;50.17;22.73;;;;;;;3.95;95.79;97503.91;4971495;28;20035;-80
2021/01/03 04:35:21;;;;;;;44.90;22.30;;;;;;;4.02;95.22;97502.75;4971524;28;20482;-80
2021/01/03 04:37:46;;;;;;;52.60;25.00;;;;;;;4.01;94.29;97514.25;4955030;28;20069;-80
2021/01/03 04:40:19;;;;;;;96.95;47.67;;;;;;;4.01;96.21;97514.25;5014946;28;20025;-80
2021/01/03 04:42:45;;;;;;;55.95;25.98;;;;;;;4.02;96.23;97521.28;5042797;28;20024;-80
2021/01/03 04:45:22;;;;;;;62.38;32.65;;;;;;;4.10;97.15;97521.84;4980154;28;20047;-80
2021/01/03 04:47:54;;;;;;;68.18;35.05;;;;;;;4.12;97.66;97517.41;4992061;28;20107;-80
2021/01/03 04:50:19;;;;;;;88.80;40.43;;;;;;;4.20;97.17;97524.13;5000262;28;20025;-80
2021/01/03 04:52:54;;;;;;;82.53;41.47;;;;;;;4.25;97.91;97514.22;5053519;28;20032;-80
2021/01/03 04:55:21;;;;;;;72.53;36.28;;;;;;;4.33;97.40;97525.41;4990611;28;20505;-80
2021/01/03 04:57:55;;;;;;;86.72;41.28;;;;;;;4.40;97.54;97523.34;4998616;28;20484;-81
2021/01/03 05:00:24;;;;;;;67.55;33.88;;;;;;;4.41;97.37;97508.34;5053370;28;20039;-79
2021/01/03 05:03:04;;;;;;;62.95;32.97;;;;;;;4.46;98.30;97515.19;5052842;28;20029;-80
2021/01/03 05:05:40;;;;;;;66.10;33.15;;;;;;;4.53;97.92;97508.72;5019197;28;20029;-79
2021/01/03 05:08:17;;;;;;;73.05;34.20;;;;;;;4.51;98.19;97510.59;4974907;28;20488;-79
2021/01/03 05:10:45;;;;;;;75.95;37.35;;;;;;;4.52;98.79;97517.63;5003460;28;20032;-79
2021/01/03 05:13:29;;;;;;;79.95;37.70;;;;;;;4.48;98.75;97517.78;5014645;28;20065;-79
2021/01/03 05:15:54;;;;;;;62.28;32.75;;;;;;;4.40;99.29;97515.41;5051981;28;20035;-79
2021/01/03 05:18:20;;;;;;;61.60;31.65;;;;;;;4.32;99.05;97521.00;5035564;28;20539;-80
2021/01/03 05:20:56;;;;;;;62.42;32.58;;;;;;;4.24;99.82;97516.94;5035552;28;20480;-80
2021/01/03 05:23:27;;;;;;;58.78;29.88;;;;;;;4.26;99.14;97523.91;5002004;28;20060;-79
2021/01/03 05:25:54;;;;;;;62.45;30.85;;;;;;;4.30;99.86;97524.66;4957622;28;20041;-79
2021/01/03 05:28:26;;;;;;;65.82;31.52;;;;;;;4.36;99.88;97522.63;4970578;28;20035;-80
2021/01/03 05:30:53;;;;;;;57.88;31.08;;;;;;;4.38;99.05;97523.44;5014100;28;20048;-80
2021/01/03 05:33:25;;;;;;;75.95;32.55;;;;;;;4.51;98.93;97515.88;5036080;28;20031;-80
2021/01/03 05:35:52;;;;;;;66.20;33.83;;;;;;;4.55;98.41;97506.03;5001976;28;20486;-80
2021/01/03 05:38:41;;;;;;;63.35;32.20;;;;;;;4.56;99.16;97519.22;5035687;28;20064;-80
2021/01/03 05:41:13;;;;;;;68.85;34.10;;;;;;;4.52;99.33;97522.06;5052521;28;20087;-81
2021/01/03 05:43:38;;;;;;;83.30;39.23;;;;;;;4.58;99.58;97516.53;5019391;28;20029;-80
2021/01/03 05:46:09;;;;;;;86.07;42.50;;;;;;;4.63;99.08;97515.41;5037880;28;20040;-80
2021/01/03 05:48:42;;;;;;;103.78;47.97;;;;;;;4.67;99.42;97527.63;5036114;28;20059;-81
2021/01/03 05:51:10;;;;;;;90.90;47.35;;;;;;;4.66;99.37;97531.19;4997409;28;20028;-81
2021/01/03 05:53:36;;;;;;;90.18;47.60;;;;;;;4.75;98.83;97535.25;5002958;28;20121;-81
2021/01/03 05:56:04;;;;;;;79.43;41.55;;;;;;;4.83;98.28;97544.63;4953978;28;20062;-80
2021/01/03 05:58:41;;;;;;;89.00;43.83;;;;;;;4.81;98.38;97530.56;4988147;28;20487;-80
2021/01/03 06:01:24;;;;;;;84.85;43.92;;;;;;;4.95;99.16;97543.28;4988176;28;20461;-80
2021/01/03 06:04:08;;;;;;;100.63;48.78;;;;;;;4.99;98.97;97539.56;5044367;28;20099;-81
2021/01/03 06:06:37;;;;;;;90.82;45.75;;;;;;;4.96;97.23;97542.34;5018160;28;20492;-80
2021/01/03 06:09:04;;;;;;;94.15;45.78;;;;;;;4.90;97.64;97540.81;5034592;28;20063;-80
2021/01/03 06:11:29;;;;;;;89.97;45.53;;;;;;;4.95;97.65;97532.69;5051730;28;20021;-80
2021/01/03 06:13:58;;;;;;;87.75;44.35;;;;;;;4.98;96.64;97542.31;5003464;28;20033;-80
2021/01/03 06:16:28;;;;;;;88.30;43.10;;;;;;;4.91;96.54;97547.84;5035460;28;20029;-80
2021/01/03 06:19:22;;;;;;;79.25;41.90;;;;;;;4.81;96.35;97541.19;5034541;28;20055;-80
2021/01/03 06:21:47;;;;;;;84.93;42.63;;;;;;;4.85;97.09;97537.50;4964418;28;20019;-80
2021/01/03 06:24:27;;;;;;;87.50;42.95;;;;;;;4.91;97.53;97539.03;4987390;28;20024;-80
2021/01/03 06:27:04;;;;;;;85.15;43.90;;;;;;;4.88;96.75;97534.72;5025419;28;20570;-87
2021/01/03 06:29:41;;;;;;;80.07;43.42;;;;;;;4.99;96.66;97551.97;4989970;28;20067;-81
2021/01/03 06:32:30;;;;;;;103.35;51.35;;;;;;;4.92;96.85;97556.66;4974659;28;20113;-84
2021/01/03 06:35:33;;;;;;;95.53;47.90;;;;;;;5.07;96.85;97549.88;4968222;28;20035;-81
2021/01/03 06:38:30;;;;;;;107.60;50.33;;;;;;;5.21;95.34;97556.34;5008945;28;20037;-82
2021/01/03 06:41:22;;;;;;;89.55;45.38;;;;;;;5.44;93.95;97552.78;4999944;28;20089;-82
2021/01/03 06:43:53;;;;;;;91.40;46.33;;;;;;;5.66;92.02;97552.72;5047859;28;20017;-80
2021/01/03 06:46:52;;;;;;;97.63;48.63;;;;;;;5.81;92.29;97560.03;5030801;28;20039;-82
2021/01/03 06:49:23;;;;;;;93.93;47.83;;;;;;;6.11;90.52;97565.81;5004354;28;20052;-81
2021/01/03 06:52:04;;;;;;;89.97;46.60;;;;;;;6.36;89.62;97561.16;5049792;28;20083;-81
2021/01/03 06:54:54;;;;;;;98.50;50.58;;;;;;;6.53;90.71;97564.75;5048457;28;20033;-82
2021/01/03 06:57:38;;;;;;;107.05;55.63;;;;;;;6.71;88.08;97560.41;4998161;28;20035;-81
2021/01/03 07:00:18;;;;;;;93.18;48.28;;;;;;;6.72;88.03;97551.50;5023281;28;20506;-80
2021/01/03 07:03:16;;;;;;;90.13;45.95;;;;;;;6.74;88.14;97554.94;4989452;28;20424;-79
2021/01/03 07:05:50;;;;;;;107.28;54.72;;;;;;;6.38;89.35;97544.22;5023960;28;20029;-80
2021/01/03 07:08:17;;;;;;;88.78;46.20;;;;;;;6.34;89.79;97557.69;4988792;28;20043;-80
2021/01/03 07:10:44;;;;;;;80.90;42.58;;;;;;;6.28;90.54;97552.66;5042456;28;20033;-80
2021/01/03 07:13:29;;;;;;;72.53;39.20;;;;;;;6.28;90.91;97553.53;5031226;28;20037;-80
2021/01/03 07:16:00;;;;;;;77.70;38.70;;;;;;;6.44;90.43;97559.00;4997023;28;20045;-80
2021/01/03 07:18:49;;;;;;;77.90;39.65;;;;;;;6.60;89.57;97557.38;4969922;28;20039;-80
2021/01/03 07:21:37;;;;;;;79.60;43.30;;;;;;;6.68;88.58;97557.88;4962681;28;20134;-80
2021/01/03 07:24:23;;;;;;;78.28;39.45;;;;;;;6.85;86.74;97554.44;5006686;28;20121;-80
2021/01/03 07:27:29;;;;;;;78.20;40.55;;;;;;;6.78;87.91;97563.63;4958682;28;20030;-80
2021/01/03 07:29:54;;;;;;;81.10;42.90;;;;;;;6.81;87.48;97553.72;4972379;28;20077;-79
2021/01/03 07:32:22;;;;;;;97.50;51.63;;;;;;;6.93;86.53;97555.81;4968001;28;20122;-81
2021/01/03 07:34:52;;;;;;;97.55;49.78;;;;;;;7.03;86.44;97549.13;4963915;28;20027;-75
2021/01/03 07:37:27;;;;;;;83.85;44.17;;;;;;;6.92;86.64;97546.09;4950850;28;20031;-83
2021/01/03 07:40:11;;;;;;;82.38;44.67;;;;;;;6.83;87.50;97556.31;5003860;28;20086;-79
2021/01/03 07:42:58;;;;;;;81.55;43.53;;;;;;;6.84;88.15;97540.28;4954616;28;20026;-80
2021/01/03 07:45:32;;;;;;;112.88;56.58;;;;;;;6.75;87.75;97554.00;4979398;28;20129;-79
2021/01/03 07:48:01;;;;;;;137.77;70.65;;;;;;;6.49;88.87;97543.75;5015082;28;20121;-81
2021/01/03 07:50:38;;;;;;;163.18;84.15;;;;;;;6.76;88.95;97570.81;4972007;28;20118;-79
2021/01/03 07:53:41;;;;;;;132.73;69.57;;;;;;;7.69;85.53;97570.69;4966082;28;20030;-79
2021/01/03 07:56:25;;;;;;;99.32;52.08;;;;;;;9.35;76.50;97576.00;5046972;28;20033;-78
2021/01/03 07:58:56;;;;;;;126.38;66.25;;;;;;;11.29;67.99;97584.59;4975651;28;20035;-81
2021/01/03 08:01:24;;;;;;;193.07;102.43;;;;;;;12.11;61.50;97576.53;4951389;28;20027;-80
2021/01/03 08:03:49;;;;;;;192.35;102.38;;;;;;;13.22;57.95;97588.41;5008920;28;20031;-81
2021/01/03 08:06:15;;;;;;;154.73;85.45;;;;;;;13.30;56.15;97595.91;5031113;28;20032;-82
2021/01/03 08:08:41;;;;;;;106.43;58.60;;;;;;;14.17;54.18;97604.63;5030450;28;20112;-82
2021/01/03 08:11:13;;;;;;;80.75;45.00;;;;;;;15.06;50.05;97602.19;4986235;28;20050;-80
2021/01/03 08:13:48;;;;;;;64.00;37.45;;;;;;;14.86;50.05;97619.09;4967610;28;20113;-82
2021/01/03 08:16:24;;;;;;;64.57;33.67;;;;;;;15.92;47.99;97610.50;5026106;28;20411;-81
2021/01/03 08:19:04;;;;;;;39.65;22.63;;;;;;;15.17;47.34;97602.19;5026512;28;20048;-80
2021/01/03 08:21:34;;;;;;;34.38;21.05;;;;;;;15.01;48.53;97617.88;5025309;28;20025;-81
2021/01/03 08:24:13;;;;;;;36.03;20.85;;;;;;;15.12;47.70;97604.41;5005126;28;20040;-81
2021/01/03 08:26:55;;;;;;;37.78;21.92;;;;;;;14.04;51.54;97602.00;5008604;28;20018;-79
2021/01/03 08:29:44;;;;;;;27.40;15.98;;;;;;;13.17;52.80;97582.47;5001150;28;20020;-80
2021/01/03 08:32:31;;;;;;;27.90;17.05;;;;;;;12.86;54.42;97613.31;4989885;28;20228;-80
2021/01/03 08:35:03;;;;;;;54.17;28.95;;;;;;;12.39;55.73;97599.66;4952867;28;20049;-76
2021/01/03 08:37:39;;;;;;;46.22;24.48;;;;;;;12.80;56.00;97615.56;4952308;28;20038;-78
2021/01/03 08:40:17;;;;;;;47.85;28.33;;;;;;;13.20;54.02;97614.50;5021102;28;20032;-75
2021/01/03 08:42:48;;;;;;;85.82;40.97;;;;;;;13.55;52.82;97611.97;5052509;28;20511;-74
2021/01/03 08:45:21;;;;;;;57.45;28.52;;;;;;;13.14;53.89;97595.28;5041426;28;21119;-74
2021/01/03 08:47:47;;;;;;;58.53;31.85;;;;;;;13.10;54.92;97607.22;5010265;28;20109;-75
2021/01/03 08:50:23;;;;;;;61.35;33.47;;;;;;;13.83;52.27;97606.28;4974628;28;20612;-75
2021/01/03 08:53:02;;;;;;;48.65;25.05;;;;;;;14.99;49.24;97617.13;5005484;28;20082;-76
2021/01/03 08:55:34;;;;;;;39.90;22.80;;;;;;;16.32;46.44;97610.72;5008484;28;20491;-71
2021/01/03 08:58:02;;;;;;;43.97;24.87;;;;;;;16.74;45.60;97615.22;4998447;28;20395;-71
2021/01/03 09:00:31;;;;;;;42.03;24.77;;;;;;;17.45;42.98;97611.66;5019018;28;20095;-71
2021/01/03 09:02:58;;;;;;;43.03;21.67;;;;;;;18.73;39.95;97607.09;4983009;28;20034;-72
2021/01/03 09:05:29;;;;;;;43.33;22.45;;;;;;;19.11;39.94;97610.72;4999756;28;20173;-72
2021/01/03 09:07:55;;;;;;;29.48;19.17;;;;;;;18.71;39.97;97611.78;5007891;28;20066;-71
2021/01/03 09:10:26;;;;;;;29.88;19.55;;;;;;;17.54;42.24;97604.56;4991873;28;20083;-71
2021/01/03 09:13:20;;;;;;;50.78;29.20;;;;;;;16.86;44.43;97597.13;4994122;28;20040;-73
2021/01/03 09:15:55;;;;;;;51.80;30.23;;;;;;;18.37;42.03;97599.63;4990448;28;20065;-73
2021/01/03 09:18:26;;;;;;;49.22;29.83;;;;;;;20.02;38.81;97608.13;5007037;28;20489;-74
2021/01/03 09:20:56;;;;;;;41.85;26.15;;;;;;;20.26;38.93;97599.41;5050823;28;20492;-71
2021/01/03 09:23:25;;;;;;;37.08;21.80;;;;;;;20.45;38.42;97589.25;5043759;28;20031;-72
2021/01/03 09:25:56;;;;;;;40.10;23.00;;;;;;;21.26;36.22;97594.50;5044840;28;20071;-75
2021/01/03 09:28:40;;;;;;;30.60;17.08;;;;;;;21.39;36.14;97584.91;5000210;28;20039;-75
2021/01/03 09:31:11;;;;;;;37.00;21.00;;;;;;;20.79;37.83;97597.56;5009902;28;20422;-75
2021/01/03 09:33:37;;;;;;;30.45;19.25;;;;;;;20.47;38.32;97586.38;5051142;28;20032;-77
2021/01/03 09:36:21;;;;;;;32.63;17.48;;;;;;;20.40;38.85;97596.16;5033364;28;20174;-77
2021/01/03 09:38:47;;;;;;;25.30;14.88;;;;;;;20.51;39.18;97593.22;4999679;28;20038;-83
2021/01/03 09:41:24;;;;;;;29.38;17.88;;;;;;;21.42;37.03;97594.63;4974010;28;20018;-75
2021/01/03 09:44:14;;;;;;;43.78;24.55;;;;;;;21.20;38.61;97586.97;4992577;28;20041;-75
2021/01/03 09:47:46;;;;;;;60.67;36.63;;;;;;;22.07;36.88;97585.75;4986023;28;20058;-76
2021/01/03 09:50:33;;;;;;;38.83;24.85;;;;;;;24.36;33.26;97589.81;4970927;28;20039;-76
2021/01/03 09:52:58;;;;;;;36.55;24.30;;;;;;;25.45;30.79;97586.69;5015852;28;20041;-72
2021/01/03 09:55:34;;;;;;;30.08;20.55;;;;;;;26.43;29.42;97604.59;5015002;28;20029;-74
2021/01/03 09:58:03;;;;;;;43.05;27.27;;;;;;;26.29;29.71;97592.63;5016434;28;20025;-73
2021/01/03 10:00:44;;;;;;;31.88;19.30;;;;;;;24.45;31.93;97593.34;5032978;28;20399;-73
2021/01/03 10:03:37;;;;;;;33.28;20.42;;;;;;;23.52;45.74;97584.16;5033125;28;20035;-76
2021/01/03 10:06:35;;;;;;;26.23;16.83;;;;;;;22.34;39.56;97578.31;4962410;28;20065;-75
2021/01/03 10:09:27;;;;;;;22.40;14.05;;;;;;;21.02;42.74;97552.50;5010594;28;20042;-76
2021/01/03 10:11:53;;;;;;;27.17;15.68;;;;;;;22.64;39.21;97561.34;4982971;28;20038;-75
2021/01/03 10:14:34;;;;;;;24.63;15.52;;;;;;;24.62;36.07;97571.16;4967811;28;20037;-75
2021/01/03 10:17:17;;;;;;;24.42;17.08;;;;;;;25.55;37.70;97577.22;5000904;28;20034;-75
2021/01/03 10:19:42;;;;;;;;;;;;;;;24.63;39.83;97564.66;5017980;28;20052;-75
2021/01/03 10:22:34;;;;;;;28.02;15.90;;;;;;;21.89;40.31;97552.34;4952270;28;19918;-76
2021/01/03 10:25:05;;;;;;;36.73;25.10;;;;;;;24.14;39.97;97550.47;4992690;28;20544;-75
2021/01/03 10:27:31;;;;;;;28.90;16.90;;;;;;;23.98;38.01;97547.78;4989960;28;20050;-74
2021/01/03 10:29:57;;;;;;;22.05;15.02;;;;;;;24.34;37.27;97549.97;4966583;28;20376;-75
2021/01/03 10:32:22;;;;;;;29.25;16.70;;;;;;;21.72;43.57;97528.72;5018215;28;20032;-74
2021/01/03 10:34:48;;;;;;;29.25;20.88;;;;;;;23.88;42.09;97541.66;5001007;28;20061;-75
2021/01/03 10:37:14;;;;;;;18.00;11.90;;;;;;;24.66;39.59;97536.94;5015581;28;20027;-74
2021/01/03 10:39:40;;;;;;;11.63;8.30;;;;;;;24.55;32.40;97542.00;4969756;28;20039;-76
2021/01/03 10:42:06;;;;;;;23.27;13.20;;;;;;;22.83;38.99;97539.19;4992041;28;20068;-74
2021/01/03 10:44:33;;;;;;;16.23;10.43;;;;;;;21.98;37.17;97526.81;5048627;28;20063;-75
2021/01/03 10:46:58;;;;;;;15.93;10.10;;;;;;;22.02;37.52;97528.19;4977261;28;20035;-75
2021/01/03 10:49:24;;;;;;;18.95;11.55;;;;;;;20.87;40.12;97517.88;4967403;28;20558;-76
2021/01/03 10:51:50;;;;;;;17.27;10.68;;;;;;;20.04;41.55;97519.19;5000909;28;20023;-75
2021/01/03 10:54:25;;;;;;;21.10;12.07;;;;;;;20.07;41.60;97499.88;4963201;28;20463;-76
2021/01/03 10:56:53;;;;;;;18.52;9.55;;;;;;;18.96;44.30;97485.63;5001734;28;20537;-76
2021/01/03 10:59:19;;;;;;;15.63;9.50;;;;;;;18.48;45.41;97485.75;5016266;28;20045;-78
2021/01/03 11:01:45;;;;;;;13.98;8.82;;;;;;;18.14;46.18;97485.34;4997661;28;20033;-73
2021/01/03 11:04:12;;;;;;;20.00;10.18;;;;;;;19.46;46.06;97481.56;5006107;28;20024;-73
2021/01/03 11:06:43;;;;;;;19.90;9.63;;;;;;;20.55;42.42;97480.44;4990929;28;20107;-74
2021/01/03 11:09:14;;;;;;;24.08;12.77;;;;;;;20.75;41.39;97464.78;5048501;28;20024;-75
2021/01/03 11:11:40;;;;;;;9.55;6.03;;;;;;;20.93;39.49;97463.72;4958438;28;20031;-75
2021/01/03 11:14:05;;;;;;;16.13;8.90;;;;;;;21.01;39.52;97462.91;5006327;28;20045;-76
2021/01/03 11:16:41;;;;;;;15.35;8.90;;;;;;;21.36;37.93;97464.63;5031629;28;20108;-75
2021/01/03 11:19:09;;;;;;;13.43;7.88;;;;;;;21.14;38.56;97465.19;4976312;28;20521;-74
2021/01/03 11:21:35;;;;;;;15.75;10.18;;;;;;;20.39;40.03;97461.31;4970404;28;20464;-72
2021/01/03 11:24:01;;;;;;;36.35;21.10;;;;;;;20.46;39.74;97451.50;4997820;28;20037;-74
2021/01/03 11:26:34;;;;;;;15.57;9.10;;;;;;;20.70;41.35;97456.25;4983638;28;20547;-73
2021/01/03 11:29:00;;;;;;;12.02;7.80;;;;;;;21.42;38.37;97447.63;4967157;28;20031;-73
2021/01/03 11:31:41;;;;;;;11.88;7.88;;;;;;;21.07;37.76;97446.78;5015358;28;20052;-72
2021/01/03 11:34:09;;;;;;;13.43;7.65;;;;;;;20.69;39.40;97451.81;4995295;28;20048;-73
2021/01/03 11:36:35;;;;;;;10.90;7.20;;;;;;;21.63;38.64;97448.03;5035592;28;20020;-74
2021/01/03 11:39:06;;;;;;;9.88;6.50;;;;;;;22.35;37.45;97450.06;5032674;28;20075;-74
2021/01/03 11:41:32;;;;;;;11.95;7.97;;;;;;;22.84;34.87;97445.41;4981031;28;20550;-72
2021/01/03 11:43:58;;;;;;;10.32;7.50;;;;;;;22.66;35.00;97444.78;5015365;28;20373;-74
2021/01/03 11:46:23;;;;;;;8.60;5.18;;;;;;;22.84;34.62;97452.75;5013925;28;20028;-74